Time;durP1;ratioP1;P1;durP2;ratioP2;P2;SDS_P1;SDS_P2;PMS_P1;PMS_P2;Temp;Humidity;BMP_temperature;BMP_pressure;BME280_temperature;BME280_humidity;BME280_pressure;Samples;Min_cycle;Max_cycle;Signal;HPM_P1;HPM_P2
2022/01/01 00:02:31;;;;;;;9.60;6.70;;;;;;;10.15;100.00;96987.44;10499907;28;20345;-78
2022/01/01 00:07:31;;;;;;;8.53;6.47;;;;;;;10.17;100.00;96992.53;10534301;28;20194;-79
2022/01/01 00:12:32;;;;;;;11.50;7.77;;;;;;;10.14;100.00;96990.22;10515604;28;20229;-78
2022/01/01 00:17:32;;;;;;;12.40;7.90;;;;;;;10.11;100.00;96978.22;10534404;28;20195;-79
2022/01/01 00:22:32;;;;;;;16.13;9.37;;;;;;;10.16;100.00;96978.59;10521084;28;20266;-79
2022/01/01 00:27:33;;;;;;;15.43;10.37;;;;;;;10.14;100.00;96998.06;10521595;28;20199;-79
2022/01/01 00:32:35;;;;;;;16.57;11.73;;;;;;;10.12;100.00;96986.91;10518649;28;20293;-79
2022/01/01 00:37:35;;;;;;;18.60;11.63;;;;;;;10.24;100.00;96998.81;10457999;28;20695;-79
2022/01/01 00:42:36;;;;;;;19.90;13.07;;;;;;;10.17;100.00;96992.53;10457779;28;20199;-79
2022/01/01 00:47:36;;;;;;;17.20;13.23;;;;;;;10.12;100.00;96997.38;10457495;28;20180;-79
2022/01/01 00:52:36;;;;;;;17.97;11.50;;;;;;;10.12;100.00;96998.22;10457800;28;20314;-79
2022/01/01 00:57:37;;;;;;;20.13;12.77;;;;;;;10.02;100.00;97010.50;10438334;28;20188;-79
2022/01/01 01:02:37;;;;;;;20.30;11.37;;;;;;;10.06;100.00;97008.41;10449241;28;20187;-79
2022/01/01 01:07:38;;;;;;;17.90;11.37;;;;;;;9.98;100.00;97017.84;10474415;28;20180;-79
2022/01/01 01:12:43;;;;;;;16.60;9.47;;;;;;;10.04;100.00;97015.59;10467513;28;20221;-79
2022/01/01 01:17:48;;;;;;;20.20;9.17;;;;;;;10.08;100.00;97019.59;10474800;28;20187;-79
2022/01/01 01:22:49;;;;;;;12.87;8.50;;;;;;;10.12;100.00;97027.00;10472035;28;20658;-78
2022/01/01 01:27:50;;;;;;;14.97;8.90;;;;;;;10.04;100.00;97032.13;10465585;28;20287;-79
2022/01/01 01:32:50;;;;;;;20.03;10.60;;;;;;;10.06;100.00;97029.34;10462586;28;20210;-79
2022/01/01 01:37:50;;;;;;;15.63;10.93;;;;;;;10.03;100.00;97046.19;10496293;28;20235;-79
2022/01/01 01:42:51;;;;;;;17.90;11.63;;;;;;;10.10;100.00;97054.28;10496636;28;20195;-79
2022/01/01 01:47:51;;;;;;;16.43;11.27;;;;;;;10.05;100.00;97057.34;10493667;28;20193;-79
2022/01/01 01:52:55;;;;;;;14.30;9.80;;;;;;;10.10;100.00;97064.75;10495527;28;20600;-79
2022/01/01 01:57:57;;;;;;;16.37;10.50;;;;;;;10.05;100.00;97070.44;10477841;28;20190;-79
2022/01/01 02:02:57;;;;;;;17.07;11.50;;;;;;;9.94;100.00;97065.38;10496000;28;20627;-79
2022/01/01 02:07:58;;;;;;;14.83;8.57;;;;;;;10.02;100.00;97059.44;10477991;28;20258;-79
2022/01/01 02:12:58;;;;;;;14.83;9.27;;;;;;;10.00;100.00;97065.63;10495930;28;20242;-79
2022/01/01 02:17:58;;;;;;;12.23;7.80;;;;;;;9.96;100.00;97069.50;10478387;28;20183;-79
2022/01/01 02:23:01;;;;;;;12.53;7.20;;;;;;;9.97;100.00;97079.00;10495294;28;20609;-78
2022/01/01 02:28:01;;;;;;;10.10;6.43;;;;;;;9.92;100.00;97081.22;10460957;28;20205;-79
2022/01/01 02:33:01;;;;;;;8.87;6.57;;;;;;;9.98;100.00;97095.53;10495373;28;20718;-79
2022/01/01 02:38:02;;;;;;;9.23;5.83;;;;;;;9.93;100.00;97098.56;10523643;28;20714;-79
2022/01/01 02:43:03;;;;;;;9.20;6.20;;;;;;;9.93;100.00;97093.31;10536488;28;20197;-79
2022/01/01 02:48:03;;;;;;;8.90;6.20;;;;;;;9.95;100.00;97098.41;10518498;28;20601;-79
2022/01/01 02:53:11;;;;;;;8.07;6.10;;;;;;;9.94;100.00;97118.53;10536090;28;20201;-79
2022/01/01 02:58:13;;;;;;;9.07;5.23;;;;;;;9.97;100.00;97120.88;10535726;28;20187;-79
2022/01/01 03:03:13;;;;;;;6.97;4.97;;;;;;;9.98;100.00;97127.78;10518389;28;20554;-79
2022/01/01 03:08:13;;;;;;;8.60;5.00;;;;;;;10.03;100.00;97129.13;10535499;28;20221;-79
2022/01/01 03:13:14;;;;;;;10.47;5.23;;;;;;;9.95;100.00;97125.44;10518029;28;20281;-79
2022/01/01 03:18:14;;;;;;;6.77;4.67;;;;;;;10.03;100.00;97123.88;10535587;28;20182;-79
2022/01/01 03:23:15;;;;;;;6.60;4.90;;;;;;;9.95;100.00;97122.81;10517985;28;20240;-79
2022/01/01 03:28:15;;;;;;;5.93;4.97;;;;;;;9.98;100.00;97117.31;10517243;28;20267;-79
2022/01/01 03:33:15;;;;;;;6.90;4.10;;;;;;;10.02;100.00;97122.25;10535296;28;20186;-79
2022/01/01 03:38:16;;;;;;;6.37;4.77;;;;;;;9.96;100.00;97121.03;10535172;28;20699;-79
2022/01/01 03:43:17;;;;;;;5.10;3.93;;;;;;;10.09;100.00;97112.84;10535411;28;20194;-79
2022/01/01 03:48:17;;;;;;;6.97;4.63;;;;;;;9.98;100.00;97117.31;10535216;28;20218;-77
2022/01/01 03:53:17;;;;;;;7.73;5.23;;;;;;;9.88;100.00;97126.97;10517814;28;20191;-79
2022/01/01 03:58:18;;;;;;;6.40;4.33;;;;;;;9.93;100.00;97126.53;10543244;28;20236;-79
2022/01/01 04:03:18;;;;;;;8.47;4.30;;;;;;;9.85;100.00;97134.25;10540097;28;20222;-79
2022/01/01 04:08:18;;;;;;;5.87;3.90;;;;;;;9.85;100.00;97135.09;10537943;28;20280;-79
2022/01/01 04:13:19;;;;;;;8.10;4.90;;;;;;;9.90;100.00;97139.91;10535528;28;20194;-79
2022/01/01 04:18:28;;;;;;;8.27;4.80;;;;;;;9.86;100.00;97128.06;10535189;28;20179;-79
2022/01/01 04:23:28;;;;;;;9.30;4.20;;;;;;;9.90;100.00;97143.34;10535807;28;20650;-79
2022/01/01 04:28:29;;;;;;;8.10;4.07;;;;;;;9.91;100.00;97131.09;10535196;28;20309;-79
2022/01/01 04:33:29;;;;;;;5.83;3.57;;;;;;;9.87;100.00;97148.84;10534664;28;20733;-79
2022/01/01 04:43:32;;;;;;;5.60;4.30;;;;;;;9.81;100.00;97141.56;10534411;28;20187;-79
2022/01/01 04:48:37;;;;;;;6.87;4.63;;;;;;;9.80;100.00;97140.75;10534643;28;20215;-79
2022/01/01 04:53:44;;;;;;;6.07;3.87;;;;;;;9.72;100.00;97150.25;10533570;28;20281;-79
2022/01/01 04:58:45;;;;;;;6.67;4.50;;;;;;;9.67;100.00;97142.84;10533573;28;20190;-79
2022/01/01 05:03:45;;;;;;;7.00;4.40;;;;;;;9.58;100.00;97154.13;10537879;28;20210;-79
2022/01/01 05:08:46;;;;;;;6.47;4.60;;;;;;;9.66;100.00;97159.50;10522282;28;20245;-79
2022/01/01 05:13:46;;;;;;;8.57;4.90;;;;;;;9.68;100.00;97156.72;10539772;28;20202;-79
2022/01/01 05:18:47;;;;;;;5.77;4.57;;;;;;;9.65;100.00;97157.84;10540368;28;20186;-79
2022/01/01 05:23:47;;;;;;;8.57;4.67;;;;;;;9.66;100.00;97166.53;10539303;28;20244;-79
2022/01/01 05:28:49;;;;;;;11.30;4.30;;;;;;;9.64;100.00;97169.28;10539531;28;20222;-79
2022/01/01 05:33:49;;;;;;;7.23;4.70;;;;;;;9.55;100.00;97170.94;10538908;28;20194;-79
2022/01/01 05:38:50;;;;;;;6.40;4.10;;;;;;;9.59;100.00;97180.16;10520861;28;20337;-79
2022/01/01 05:43:50;;;;;;;7.30;4.30;;;;;;;9.57;100.00;97171.63;10503618;28;20210;-79
2022/01/01 05:48:51;;;;;;;6.93;4.37;;;;;;;9.70;100.00;97165.28;10538555;28;20271;-79
2022/01/01 05:53:51;;;;;;;4.80;3.83;;;;;;;9.68;100.00;97177.66;10538384;28;20187;-79
2022/01/01 05:58:51;;;;;;;6.63;4.43;;;;;;;9.56;100.00;97188.28;10537517;28;20531;-79
2022/01/01 06:03:52;;;;;;;6.37;4.00;;;;;;;9.53;100.00;97185.94;10538400;28;20241;-79
2022/01/01 06:08:52;;;;;;;5.13;3.57;;;;;;;9.63;100.00;97194.63;10537406;28;20260;-79
2022/01/01 06:13:52;;;;;;;6.23;3.73;;;;;;;9.66;100.00;97198.72;10537500;28;20650;-79
2022/01/01 06:18:53;;;;;;;5.37;4.00;;;;;;;9.63;100.00;97197.25;10536685;28;20670;-79
2022/01/01 06:23:53;;;;;;;5.87;3.83;;;;;;;9.67;100.00;97189.09;10537444;28;20190;-79
2022/01/01 06:28:53;;;;;;;7.87;3.90;;;;;;;9.65;100.00;97197.09;10536583;28;20210;-79
2022/01/01 06:33:54;;;;;;;5.60;3.50;;;;;;;9.55;100.00;97199.69;10538234;28;20198;-79
2022/01/01 06:38:54;;;;;;;6.37;3.03;;;;;;;9.58;100.00;97199.41;10519016;28;20230;-79
2022/01/01 06:43:55;;;;;;;5.03;3.17;;;;;;;9.51;100.00;97216.66;10535749;28;20217;-79
2022/01/01 06:48:55;;;;;;;5.40;3.77;;;;;;;9.51;100.00;97224.50;10536802;28;20576;-79
2022/01/01 06:53:55;;;;;;;9.53;3.10;;;;;;;9.57;100.00;97241.41;10535749;28;20733;-79
2022/01/01 06:58:56;;;;;;;4.43;3.30;;;;;;;9.59;100.00;97242.13;10536003;28;20182;-79
2022/01/01 07:03:56;;;;;;;5.97;2.87;;;;;;;9.57;100.00;97259.72;10535888;28;20187;-79
2022/01/01 07:08:57;;;;;;;4.93;3.20;;;;;;;9.57;100.00;97270.19;10535844;28;20218;-79
2022/01/01 07:13:57;;;;;;;4.77;2.53;;;;;;;9.61;100.00;97276.81;10535806;28;20218;-79
2022/01/01 07:18:57;;;;;;;3.53;2.70;;;;;;;9.57;100.00;97276.25;10535285;28;20182;-80
2022/01/01 07:23:58;;;;;;;4.07;2.50;;;;;;;9.62;100.00;97278.47;10536103;28;20191;-79
2022/01/01 07:28:58;;;;;;;3.87;2.63;;;;;;;9.63;100.00;97283.56;10538106;28;20311;-79
2022/01/01 07:33:59;;;;;;;7.30;2.90;;;;;;;9.70;100.00;97285.63;10544381;28;20217;-79
2022/01/01 07:38:59;;;;;;;3.73;2.70;;;;;;;9.69;100.00;97281.34;10543425;28;20522;-79
2022/01/01 07:43:59;;;;;;;5.07;2.60;;;;;;;9.72;100.00;97294.16;10543544;28;20195;-79
2022/01/01 07:49:00;;;;;;;3.23;2.10;;;;;;;9.78;100.00;97293.59;10543409;28;20229;-79
2022/01/01 07:54:00;;;;;;;3.93;2.63;;;;;;;9.84;100.00;97276.53;10542946;28;20198;-79
2022/01/01 07:59:00;;;;;;;4.13;2.70;;;;;;;9.87;100.00;97287.56;10542792;28;20185;-79
2022/01/01 08:04:02;;;;;;;5.20;2.40;;;;;;;9.71;100.00;97287.25;10543078;28;20730;-79
2022/01/01 08:09:03;;;;;;;3.40;2.70;;;;;;;9.93;100.00;97294.03;10542207;28;20229;-79
2022/01/01 08:14:03;;;;;;;4.57;2.87;;;;;;;9.91;100.00;97281.09;10542465;28;20587;-77
2022/01/01 08:19:04;;;;;;;4.07;2.00;;;;;;;9.90;100.00;97284.66;10542589;28;20183;-76
2022/01/01 08:24:04;;;;;;;5.20;2.57;;;;;;;10.02;100.00;97287.97;10541143;28;20198;-77
2022/01/01 08:29:05;;;;;;;3.90;2.40;;;;;;;9.87;100.00;97286.72;10541889;28;20214;-78
2022/01/01 08:34:05;;;;;;;3.93;2.40;;;;;;;9.87;100.00;97300.63;10541753;28;20286;-80
2022/01/01 08:39:07;;;;;;;5.80;2.33;;;;;;;9.92;100.00;97298.44;10522491;28;20223;-79
2022/01/01 08:44:07;;;;;;;5.17;2.60;;;;;;;10.03;100.00;97302.72;10541511;28;20546;-80
2022/01/01 08:49:08;;;;;;;3.43;2.23;;;;;;;10.04;100.00;97309.59;10541337;28;20225;-80
2022/01/01 08:54:11;;;;;;;4.93;2.37;;;;;;;9.96;100.00;97317.31;10522736;28;20190;-80
2022/01/01 08:59:11;;;;;;;4.27;2.10;;;;;;;9.85;100.00;97325.28;10540847;28;20186;-80
2022/01/01 09:04:12;;;;;;;3.63;2.50;;;;;;;9.94;100.00;97330.53;10540629;28;20194;-81
2022/01/01 09:09:12;;;;;;;3.93;2.03;;;;;;;10.13;100.00;97342.78;10539737;28;20226;-81
2022/01/01 09:14:13;;;;;;;3.03;2.17;;;;;;;10.14;100.00;97359.34;10521499;28;20267;-80
2022/01/01 09:19:13;;;;;;;4.43;2.07;;;;;;;10.21;100.00;97352.56;10539757;28;20583;-81
2022/01/01 09:24:13;;;;;;;6.00;2.13;;;;;;;10.27;100.00;97352.00;10539427;28;20190;-80
2022/01/01 09:29:14;;;;;;;4.47;2.50;;;;;;;10.17;100.00;97361.69;10530987;28;20229;-81
2022/01/01 09:34:14;;;;;;;6.30;2.37;;;;;;;10.22;100.00;97366.50;10514753;28;20712;-80
2022/01/01 09:39:15;;;;;;;4.37;2.10;;;;;;;10.32;100.00;97368.16;10474177;28;20250;-81
2022/01/01 09:44:17;;;;;;;3.83;2.67;;;;;;;10.42;100.00;97369.97;10437893;28;20218;-80
2022/01/01 09:49:19;;;;;;;4.57;1.90;;;;;;;10.38;100.00;97373.84;10454573;28;20536;-77
2022/01/01 09:54:19;;;;;;;6.20;2.43;;;;;;;10.42;100.00;97393.56;10436436;28;20184;-78
2022/01/01 09:59:19;;;;;;;6.97;2.37;;;;;;;10.31;100.00;97402.34;10455172;28;20184;-77
2022/01/01 10:04:21;;;;;;;4.70;2.03;;;;;;;10.42;100.00;97396.16;10437061;28;20278;-77
2022/01/01 10:09:29;;;;;;;7.57;2.13;;;;;;;10.27;100.00;97408.81;10437110;28;20215;-77
2022/01/01 10:14:37;;;;;;;4.93;2.50;;;;;;;10.39;100.00;97409.53;10454415;28;20199;-77
2022/01/01 10:19:38;;;;;;;6.87;2.40;;;;;;;10.20;100.00;97405.94;10453738;28;20718;-77
2022/01/01 10:30:02;;;;;;;4.07;2.50;;;;;;;10.41;100.00;97399.75;10453186;28;20584;-77
2022/01/01 10:35:05;;;;;;;4.53;2.47;;;;;;;10.41;100.00;97394.50;10451752;28;20275;-77
2022/01/01 10:40:06;;;;;;;5.33;3.43;;;;;;;10.33;100.00;97393.41;10434967;28;20271;-77
2022/01/01 10:45:07;;;;;;;6.60;2.70;;;;;;;10.43;100.00;97390.78;10451252;28;20208;-77
2022/01/01 10:50:15;;;;;;;4.67;2.90;;;;;;;10.48;100.00;97406.91;10451767;28;20760;-77
2022/01/01 10:55:16;;;;;;;5.50;3.07;;;;;;;10.67;100.00;97413.94;10451190;28;20231;-76
2022/01/01 11:00:20;;;;;;;7.17;2.57;;;;;;;10.50;100.00;97414.63;10452077;28;20184;-76
2022/01/01 11:05:34;;;;;;;4.60;2.70;;;;;;;10.53;100.00;97417.81;10450857;28;20188;-76
2022/01/01 11:10:35;;;;;;;5.47;3.10;;;;;;;10.44;100.00;97416.00;10451702;28;20243;-76
2022/01/01 11:15:36;;;;;;;8.63;3.10;;;;;;;10.36;100.00;97413.25;10451591;28;20199;-76
2022/01/01 11:20:36;;;;;;;9.90;3.30;;;;;;;10.31;100.00;97418.88;10433136;28;20195;-76
2022/01/01 11:25:38;;;;;;;10.13;3.80;;;;;;;10.34;100.00;97416.00;10433543;28;20183;-76
2022/01/01 11:30:59;;;;;;;5.82;3.05;;;;;;;10.66;100.00;97417.53;10433588;28;20223;-76
2022/01/01 11:36:00;;;;;;;8.23;3.23;;;;;;;10.50;100.00;97412.00;10432709;28;20638;-76
2022/01/01 11:41:10;;;;;;;6.72;2.78;;;;;;;10.42;100.00;97404.84;10451296;28;20192;-78
2022/01/01 11:46:22;;;;;;;8.20;2.63;;;;;;;10.49;100.00;97407.72;10432395;28;20580;-75
2022/01/01 11:51:38;;;;;;;7.90;2.97;;;;;;;10.51;100.00;97405.81;10450645;28;20231;-78
2022/01/01 11:56:51;;;;;;;8.87;2.90;;;;;;;10.31;100.00;97415.44;10451062;28;20606;-76
2022/01/01 12:01:53;;;;;;;8.07;3.00;;;;;;;10.47;100.00;97409.66;10450222;28;20615;-76
2022/01/01 12:06:58;;;;;;;6.47;2.72;;;;;;;10.55;100.00;97407.19;10449826;28;20644;-76
2022/01/01 12:11:58;;;;;;;6.27;3.00;;;;;;;10.46;100.00;97395.75;10450280;28;20216;-76
2022/01/01 12:17:02;;;;;;;5.23;3.03;;;;;;;10.64;100.00;97408.97;10436131;28;20200;-77
2022/01/01 12:22:07;;;;;;;9.50;3.00;;;;;;;10.65;100.00;97402.75;10458310;28;20180;-76
2022/01/01 12:27:12;;;;;;;8.37;3.03;;;;;;;10.64;100.00;97401.13;10458810;28;20184;-77
2022/01/01 12:32:13;;;;;;;7.80;2.90;;;;;;;10.49;100.00;97402.50;10438961;28;20216;-77
2022/01/01 12:37:13;;;;;;;7.57;3.07;;;;;;;10.63;100.00;97409.94;10477665;28;20231;-76
2022/01/01 12:42:31;;;;;;;10.00;3.90;;;;;;;10.45;100.00;97411.59;10464614;28;20191;-77
2022/01/01 12:47:32;;;;;;;9.03;3.20;;;;;;;10.54;100.00;97413.41;10464674;28;20202;-77
2022/01/01 12:52:32;;;;;;;9.77;3.20;;;;;;;10.25;100.00;97408.94;10480974;28;20218;-77
2022/01/01 12:57:32;;;;;;;7.37;3.57;;;;;;;10.43;100.00;97411.75;10498841;28;20199;-77
2022/01/01 13:02:33;;;;;;;13.97;3.70;;;;;;;10.42;100.00;97410.09;10498291;28;20320;-77
2022/01/01 13:07:33;;;;;;;9.47;5.53;;;;;;;10.24;100.00;97420.38;10480481;28;20260;-77
2022/01/01 13:12:34;;;;;;;14.80;5.50;;;;;;;10.34;100.00;97420.44;10498561;28;20229;-77
2022/01/01 13:17:34;;;;;;;8.60;3.83;;;;;;;10.51;100.00;97427.59;10498232;28;20183;-77
2022/01/01 13:22:34;;;;;;;12.30;4.30;;;;;;;10.37;100.00;97420.16;10498191;28;20217;-77
2022/01/01 13:27:35;;;;;;;19.57;11.40;;;;;;;10.20;100.00;97415.56;10498006;28;20670;-77
2022/01/01 13:32:35;;;;;;;16.40;5.90;;;;;;;10.30;100.00;97424.25;10495328;28;21324;-77
2022/01/01 13:37:35;;;;;;;30.90;13.20;;;;;;;10.28;100.00;97423.56;10466563;28;20235;-77
2022/01/01 13:42:36;;;;;;;11.10;5.13;;;;;;;10.30;100.00;97434.72;10475832;28;20188;-77
2022/01/01 13:47:37;;;;;;;11.07;4.63;;;;;;;10.34;100.00;97429.09;10470982;28;20222;-77
2022/01/01 13:52:38;;;;;;;7.73;4.20;;;;;;;10.17;100.00;97427.16;10471503;28;20707;-77
2022/01/01 13:57:50;;;;;;;6.40;4.23;;;;;;;10.06;100.00;97422.84;10472223;28;20183;-77
2022/01/01 14:02:54;;;;;;;10.37;4.30;;;;;;;10.10;100.00;97418.16;10475565;28;20285;-77
2022/01/01 14:08:11;;;;;;;9.53;4.00;;;;;;;10.06;100.00;97417.63;10455236;28;20271;-77
2022/01/01 14:13:11;;;;;;;13.53;5.57;;;;;;;10.24;100.00;97425.63;10471631;28;20341;-77
2022/01/01 14:18:12;;;;;;;9.00;3.83;;;;;;;10.20;100.00;97412.94;10470604;28;20214;-77
2022/01/01 14:23:30;;;;;;;11.63;3.77;;;;;;;10.10;100.00;97424.22;10471803;28;20180;-77
2022/01/01 14:28:30;;;;;;;9.20;4.17;;;;;;;10.02;100.00;97429.31;10455194;28;20741;-76
2022/01/01 14:33:31;;;;;;;12.07;6.23;;;;;;;9.94;100.00;97429.19;10434640;28;20206;-77
2022/01/01 14:38:32;;;;;;;10.37;5.13;;;;;;;9.97;100.00;97426.28;10482101;28;20235;-77
2022/01/01 14:43:33;;;;;;;8.37;4.20;;;;;;;10.05;100.00;97423.00;10493279;28;20241;-76
2022/01/01 14:48:37;;;;;;;11.87;4.40;;;;;;;9.97;100.00;97407.97;10493312;28;20221;-76
2022/01/01 14:53:52;;;;;;;17.07;7.40;;;;;;;10.13;100.00;97413.47;10475525;28;20187;-77
2022/01/01 14:59:04;;;;;;;10.53;4.63;;;;;;;9.93;100.00;97406.56;10458482;28;20209;-77
2022/01/01 15:04:05;;;;;;;26.27;16.60;;;;;;;9.96;100.00;97407.13;10492885;28;20191;-76
2022/01/01 15:09:05;;;;;;;9.03;6.00;;;;;;;9.98;100.00;97413.06;10492699;28;20215;-76
2022/01/01 15:14:07;;;;;;;8.57;4.10;;;;;;;10.06;100.00;97419.41;10492700;28;20198;-77
2022/01/01 15:19:08;;;;;;;9.57;4.53;;;;;;;10.04;100.00;97422.16;10474776;28;20202;-77
2022/01/01 15:24:12;;;;;;;7.57;5.47;;;;;;;9.85;100.00;97414.25;10474150;28;20205;-77
2022/01/01 15:29:26;;;;;;;8.27;4.17;;;;;;;9.96;100.00;97414.97;10470907;28;20813;-77
2022/01/01 15:34:28;;;;;;;7.30;4.10;;;;;;;9.88;100.00;97414.84;10469111;28;20195;-77
2022/01/01 15:39:31;;;;;;;9.47;4.90;;;;;;;9.81;100.00;97425.00;10428114;28;20254;-77
2022/01/01 15:44:32;;;;;;;11.63;4.33;;;;;;;9.73;100.00;97424.03;10426611;28;20196;-77
2022/01/01 15:49:35;;;;;;;11.63;5.20;;;;;;;9.71;100.00;97415.47;10448645;28;20829;-77
2022/01/01 15:54:35;;;;;;;9.60;5.13;;;;;;;9.69;100.00;97409.53;10458238;28;20192;-76
2022/01/01 15:59:45;;;;;;;568.37;247.23;;;;;;;9.81;100.00;97398.81;10462214;28;20542;-78
2022/01/01 16:04:55;;;;;;;47.63;17.93;;;;;;;9.62;100.00;97404.03;10481274;28;20219;-76
2022/01/01 16:10:02;;;;;;;74.90;34.37;;;;;;;9.69;100.00;97399.09;10481046;28;20223;-77
2022/01/01 16:15:06;;;;;;;42.30;22.37;;;;;;;9.79;100.00;97399.94;10481463;28;20244;-77
2022/01/01 16:20:08;;;;;;;45.83;28.77;;;;;;;9.72;100.00;97394.41;10499044;28;20192;-77
2022/01/01 16:25:08;;;;;;;25.27;12.93;;;;;;;9.59;100.00;97389.41;10498763;28;20202;-77
2022/01/01 16:30:09;;;;;;;14.87;6.77;;;;;;;9.58;100.00;97392.97;10480834;28;20309;-77
2022/01/01 16:35:11;;;;;;;8.33;5.40;;;;;;;9.52;100.00;97385.66;10483342;28;20347;-77
2022/01/01 16:40:12;;;;;;;9.40;5.47;;;;;;;9.34;100.00;97389.88;10540250;28;20226;-77
2022/01/01 16:45:13;;;;;;;18.07;12.73;;;;;;;9.50;100.00;97390.22;10521967;28;20668;-78
2022/01/01 16:50:15;;;;;;;26.07;13.67;;;;;;;9.36;100.00;97396.63;10521508;28;20218;-77
2022/01/01 16:55:25;;;;;;;11.23;6.57;;;;;;;9.60;100.00;97398.09;10539703;28;20186;-77
2022/01/01 17:00:26;;;;;;;12.23;6.20;;;;;;;9.59;100.00;97399.88;10538812;28;20581;-77
2022/01/01 17:05:30;;;;;;;11.10;5.03;;;;;;;9.62;100.00;97401.41;10539382;28;20656;-77
2022/01/01 17:10:30;;;;;;;51.00;20.57;;;;;;;9.34;100.00;97398.56;10539127;28;20305;-77
2022/01/01 17:15:33;;;;;;;23.67;10.80;;;;;;;9.25;100.00;97400.19;10521247;28;20282;-77
2022/01/01 17:20:50;;;;;;;13.37;7.50;;;;;;;9.38;100.00;97402.56;10503606;28;20193;-77
2022/01/01 17:25:55;;;;;;;15.40;6.97;;;;;;;9.34;100.00;97402.94;10522251;28;20189;-77
2022/01/01 17:30:58;;;;;;;15.90;8.93;;;;;;;9.11;100.00;97397.88;10539484;28;20225;-77
2022/01/01 17:41:05;;;;;;;9.47;6.43;;;;;;;9.14;100.00;97392.41;10539239;28;20187;-77
2022/01/01 17:46:06;;;;;;;10.33;5.17;;;;;;;9.27;100.00;97387.78;10520812;28;20214;-77
2022/01/01 17:51:10;;;;;;;7.63;4.50;;;;;;;9.20;100.00;97384.03;10538742;28;20321;-77
2022/01/01 17:56:11;;;;;;;14.07;4.80;;;;;;;9.08;100.00;97390.31;10538605;28;20221;-77
2022/01/01 18:01:13;;;;;;;8.77;5.07;;;;;;;9.12;100.00;97380.44;10538480;28;20244;-77
2022/01/01 18:06:19;;;;;;;19.37;9.83;;;;;;;8.98;100.00;97369.38;10519934;28;20552;-77
2022/01/01 18:11:20;;;;;;;24.90;11.63;;;;;;;9.00;100.00;97377.06;10519543;28;20258;-77
2022/01/01 18:16:21;;;;;;;9.33;5.17;;;;;;;9.08;100.00;97370.25;10536744;28;20688;-77
2022/01/01 18:21:23;;;;;;;12.77;5.60;;;;;;;9.12;100.00;97386.50;10537166;28;20183;-77
2022/01/01 18:26:27;;;;;;;7.90;4.60;;;;;;;8.68;100.00;97398.88;10519332;28;20186;-77
2022/01/01 18:31:32;;;;;;;17.57;5.83;;;;;;;8.84;100.00;97391.44;10537262;28;20226;-77
2022/01/01 18:36:33;;;;;;;21.63;8.27;;;;;;;8.55;100.00;97386.84;10518025;28;20277;-77
2022/01/01 18:41:35;;;;;;;22.13;10.00;;;;;;;8.09;100.00;97395.81;10537462;28;20234;-77
2022/01/01 18:46:36;;;;;;;16.10;7.13;;;;;;;8.04;100.00;97385.75;10536157;28;20198;-77
2022/01/01 18:51:38;;;;;;;11.47;5.40;;;;;;;7.89;100.00;97400.03;10536648;28;20214;-77
2022/01/01 18:56:57;;;;;;;7.33;4.30;;;;;;;7.67;100.00;97406.94;10536694;28;20660;-77
2022/01/01 19:02:01;;;;;;;22.07;10.27;;;;;;;7.44;100.00;97403.53;10536391;28;20192;-77
2022/01/01 19:07:02;;;;;;;15.07;5.60;;;;;;;7.38;100.00;97422.25;10536347;28;20273;-77
2022/01/01 19:12:03;;;;;;;8.80;4.87;;;;;;;7.38;100.00;97403.16;10517956;28;20699;-77
2022/01/01 19:17:04;;;;;;;9.07;5.67;;;;;;;7.17;100.00;97408.25;10477059;28;20186;-77
2022/01/01 19:22:05;;;;;;;16.67;7.03;;;;;;;7.38;100.00;97404.03;10510219;28;20195;-77
2022/01/01 19:27:05;;;;;;;12.13;7.10;;;;;;;7.44;100.00;97411.34;10501652;28;20584;-76
2022/01/01 19:32:06;;;;;;;13.17;5.80;;;;;;;7.57;100.00;97413.00;10507933;28;20611;-77
2022/01/01 19:37:06;;;;;;;12.03;6.13;;;;;;;7.60;100.00;97402.34;10524501;28;20229;-76
2022/01/01 19:42:11;;;;;;;8.43;4.77;;;;;;;7.62;100.00;97406.47;10542999;28;20198;-76
2022/01/01 19:47:32;;;;;;;10.60;4.50;;;;;;;7.63;100.00;97395.09;10541375;28;20197;-77
2022/01/01 19:52:32;;;;;;;10.53;5.50;;;;;;;7.35;100.00;97386.00;10542422;28;20241;-77
2022/01/01 19:57:34;;;;;;;11.07;5.73;;;;;;;7.01;100.00;97380.78;10523689;28;20198;-77
2022/01/01 20:02:35;;;;;;;10.87;5.13;;;;;;;7.05;100.00;97371.78;10523551;28;20244;-76
2022/01/01 20:07:36;;;;;;;11.67;5.57;;;;;;;6.72;100.00;97347.41;10542126;28;20186;-77
2022/01/01 20:12:37;;;;;;;9.73;5.03;;;;;;;6.63;100.00;97355.91;10541408;28;20574;-77
2022/01/01 20:17:37;;;;;;;12.00;5.40;;;;;;;6.48;100.00;97349.22;10522857;28;20190;-77
2022/01/01 20:22:38;;;;;;;10.37;5.03;;;;;;;6.28;100.00;97358.50;10541022;28;20550;-77
2022/01/01 20:27:38;;;;;;;14.67;5.73;;;;;;;6.10;100.00;97350.31;10522808;28;20201;-77
2022/01/01 20:32:39;;;;;;;10.83;5.23;;;;;;;6.05;100.00;97343.66;10519621;28;20244;-76
2022/01/01 20:37:41;;;;;;;6.97;5.17;;;;;;;5.99;100.00;97341.53;10515048;28;20227;-76
2022/01/01 20:42:43;;;;;;;12.20;5.10;;;;;;;5.86;100.00;97330.31;10515282;28;20568;-76
2022/01/01 20:47:43;;;;;;;11.33;5.93;;;;;;;5.65;100.00;97332.69;10497015;28;20225;-76
2022/01/01 20:52:43;;;;;;;11.37;6.17;;;;;;;5.60;100.00;97325.22;10540019;28;20222;-76
2022/01/01 20:57:44;;;;;;;14.17;5.90;;;;;;;5.50;100.00;97324.25;10539251;28;20189;-76
2022/01/01 21:02:47;;;;;;;11.07;5.63;;;;;;;5.52;100.00;97333.56;10539941;28;20265;-76
2022/01/01 21:07:49;;;;;;;10.87;5.40;;;;;;;5.20;100.00;97328.06;10539244;28;20187;-77
2022/01/01 21:12:50;;;;;;;10.80;5.30;;;;;;;5.05;100.00;97342.13;10538766;28;20222;-76
2022/01/01 21:17:51;;;;;;;9.97;5.30;;;;;;;4.72;100.00;97325.34;10520698;28;20213;-76
2022/01/01 21:22:52;;;;;;;8.40;5.40;;;;;;;4.32;100.00;97313.28;10538900;28;20200;-76
2022/01/01 21:27:52;;;;;;;8.33;4.97;;;;;;;4.32;100.00;97310.69;10537850;28;20198;-77
2022/01/01 21:32:52;;;;;;;15.93;5.73;;;;;;;4.53;100.00;97292.84;10519817;28;20306;-76
2022/01/01 21:37:53;;;;;;;7.30;5.00;;;;;;;4.58;100.00;97282.13;10537758;28;20244;-76
2022/01/01 21:42:54;;;;;;;11.13;6.33;;;;;;;4.51;100.00;97262.75;10519562;28;20193;-76
2022/01/01 21:47:54;;;;;;;9.90;6.00;;;;;;;4.55;100.00;97254.66;10537674;28;20662;-76
2022/01/01 21:52:54;;;;;;;12.90;5.50;;;;;;;4.71;100.00;97263.97;10537487;28;20655;-77
2022/01/01 21:57:55;;;;;;;13.03;5.67;;;;;;;4.79;100.00;97259.06;10536987;28;20588;-76
2022/01/01 22:02:55;;;;;;;6.80;5.43;;;;;;;4.75;100.00;97261.06;10518840;28;20583;-77
2022/01/01 22:07:55;;;;;;;12.13;5.57;;;;;;;4.45;100.00;97245.84;10537315;28;20182;-77
2022/01/01 22:12:56;;;;;;;16.07;5.57;;;;;;;4.44;100.00;97250.22;10517737;28;20301;-77
2022/01/01 22:17:56;;;;;;;14.93;5.90;;;;;;;4.57;100.00;97252.78;10536864;28;20274;-76
2022/01/01 22:22:57;;;;;;;11.77;6.03;;;;;;;4.67;100.00;97233.97;10536623;28;20190;-76
2022/01/01 22:27:57;;;;;;;9.70;5.13;;;;;;;4.99;100.00;97222.19;10535561;28;20197;-77
2022/01/01 22:32:57;;;;;;;7.87;4.63;;;;;;;5.13;100.00;97218.59;10535750;28;20214;-76
2022/01/01 22:37:58;;;;;;;12.33;5.23;;;;;;;5.23;100.00;97210.97;10535065;28;20242;-76
2022/01/01 22:42:58;;;;;;;12.40;4.63;;;;;;;5.33;100.00;97211.97;10535812;28;20194;-77
2022/01/01 22:47:59;;;;;;;6.93;4.77;;;;;;;5.40;100.00;97203.72;10535247;28;20661;-76
2022/01/01 22:52:59;;;;;;;9.63;5.50;;;;;;;5.48;100.00;97196.19;10535207;28;20700;-76
2022/01/01 22:57:59;;;;;;;12.30;4.40;;;;;;;5.45;100.00;97186.84;10516863;28;20198;-77
2022/01/01 23:03:03;;;;;;;8.90;4.33;;;;;;;5.41;100.00;97185.41;10534682;28;20273;-76
2022/01/01 23:08:03;;;;;;;8.17;4.70;;;;;;;5.12;100.00;97167.56;10534263;28;20274;-77
2022/01/01 23:13:04;;;;;;;10.80;5.30;;;;;;;5.23;100.00;97166.78;10516809;28;20215;-76
2022/01/01 23:23:06;;;;;;;13.50;5.20;;;;;;;5.25;100.00;97146.72;10516159;28;20205;-77
2022/01/01 23:28:08;;;;;;;9.33;5.40;;;;;;;5.47;100.00;97147.78;10534686;28;20193;-76